sensor_id;sensor_type;location;lat;lon;timestamp;temperature;humidity
34726;DHT22;20951;50.818;4.344;2023-05-31T00:00:58;15.30;99.90
34726;DHT22;20951;50.818;4.344;2023-05-31T00:03:29;15.30;99.90
34726;DHT22;20951;50.818;4.344;2023-05-31T00:06:00;15.30;99.90
34726;DHT22;20951;50.818;4.344;2023-05-31T00:08:32;15.30;99.90
34726;DHT22;20951;50.818;4.344;2023-05-31T00:11:03;15.20;99.90
34726;DHT22;20951;50.818;4.344;2023-05-31T00:13:35;15.20;99.90
34726;DHT22;20951;50.818;4.344;2023-05-31T00:16:09;15.20;99.90
34726;DHT22;20951;50.818;4.344;2023-05-31T00:18:41;15.30;99.90
34726;DHT22;20951;50.818;4.344;2023-05-31T00:21:13;15.30;99.90
34726;DHT22;20951;50.818;4.344;2023-05-31T00:23:46;15.30;99.90
34726;DHT22;20951;50.818;4.344;2023-05-31T00:26:18;15.20;99.90
34726;DHT22;20951;50.818;4.344;2023-05-31T00:28:52;15.20;99.90
34726;DHT22;20951;50.818;4.344;2023-05-31T00:31:24;15.20;99.90
34726;DHT22;20951;50.818;4.344;2023-05-31T00:33:56;15.20;99.90
34726;DHT22;20951;50.818;4.344;2023-05-31T00:36:27;15.10;99.90
34726;DHT22;20951;50.818;4.344;2023-05-31T00:39:00;15.20;99.90
34726;DHT22;20951;50.818;4.344;2023-05-31T00:41:33;15.00;99.90
34726;DHT22;20951;50.818;4.344;2023-05-31T00:44:06;15.20;99.90
34726;DHT22;20951;50.818;4.344;2023-05-31T00:46:39;15.10;99.90
34726;DHT22;20951;50.818;4.344;2023-05-31T00:49:10;15.10;99.90
34726;DHT22;20951;50.818;4.344;2023-05-31T00:51:43;15.00;99.90
34726;DHT22;20951;50.818;4.344;2023-05-31T00:54:17;15.00;99.90
34726;DHT22;20951;50.818;4.344;2023-05-31T00:56:53;14.90;99.90
34726;DHT22;20951;50.818;4.344;2023-05-31T00:59:26;15.00;99.90
34726;DHT22;20951;50.818;4.344;2023-05-31T01:01:59;15.10;99.90
34726;DHT22;20951;50.818;4.344;2023-05-31T01:04:33;15.00;99.90
34726;DHT22;20951;50.818;4.344;2023-05-31T01:07:04;14.90;99.90
34726;DHT22;20951;50.818;4.344;2023-05-31T01:09:37;14.80;99.90
34726;DHT22;20951;50.818;4.344;2023-05-31T01:15:31;14.70;99.90
34726;DHT22;20951;50.818;4.344;2023-05-31T01:20:47;14.70;99.90
34726;DHT22;20951;50.818;4.344;2023-05-31T01:23:33;14.60;99.90
34726;DHT22;20951;50.818;4.344;2023-05-31T01:28:50;14.60;99.90
34726;DHT22;20951;50.818;4.344;2023-05-31T01:31:22;14.60;99.90
34726;DHT22;20951;50.818;4.344;2023-05-31T01:33:55;14.60;99.90
34726;DHT22;20951;50.818;4.344;2023-05-31T01:36:27;14.70;99.90
34726;DHT22;20951;50.818;4.344;2023-05-31T01:39:01;14.60;99.90
34726;DHT22;20951;50.818;4.344;2023-05-31T01:41:34;14.60;99.90
34726;DHT22;20951;50.818;4.344;2023-05-31T01:44:07;14.50;99.90
34726;DHT22;20951;50.818;4.344;2023-05-31T01:46:38;14.50;99.90
34726;DHT22;20951;50.818;4.344;2023-05-31T01:49:09;14.50;99.90
34726;DHT22;20951;50.818;4.344;2023-05-31T01:51:46;14.50;99.90
34726;DHT22;20951;50.818;4.344;2023-05-31T01:54:18;14.60;99.90
34726;DHT22;20951;50.818;4.344;2023-05-31T01:56:49;14.50;99.90
34726;DHT22;20951;50.818;4.344;2023-05-31T01:59:21;14.30;99.90
34726;DHT22;20951;50.818;4.344;2023-05-31T02:01:52;14.30;99.90
34726;DHT22;20951;50.818;4.344;2023-05-31T02:04:25;14.40;99.90
34726;DHT22;20951;50.818;4.344;2023-05-31T02:06:55;14.30;99.90
34726;DHT22;20951;50.818;4.344;2023-05-31T02:09:29;14.30;99.90
34726;DHT22;20951;50.818;4.344;2023-05-31T02:12:00;14.20;99.90
34726;DHT22;20951;50.818;4.344;2023-05-31T02:14:31;14.20;99.90
34726;DHT22;20951;50.818;4.344;2023-05-31T02:17:04;14.10;99.90
34726;DHT22;20951;50.818;4.344;2023-05-31T02:19:35;14.00;99.90
34726;DHT22;20951;50.818;4.344;2023-05-31T02:22:06;14.00;99.90
34726;DHT22;20951;50.818;4.344;2023-05-31T02:24:37;14.00;99.90
34726;DHT22;20951;50.818;4.344;2023-05-31T02:27:08;13.90;99.90
34726;DHT22;20951;50.818;4.344;2023-05-31T02:29:41;14.00;99.90
34726;DHT22;20951;50.818;4.344;2023-05-31T02:32:11;14.00;99.90
34726;DHT22;20951;50.818;4.344;2023-05-31T02:34:42;13.90;99.90
34726;DHT22;20951;50.818;4.344;2023-05-31T02:37:13;13.90;99.90
34726;DHT22;20951;50.818;4.344;2023-05-31T02:39:43;13.90;99.90
34726;DHT22;20951;50.818;4.344;2023-05-31T02:42:14;14.00;99.90
34726;DHT22;20951;50.818;4.344;2023-05-31T02:44:44;14.00;99.90
34726;DHT22;20951;50.818;4.344;2023-05-31T02:47:15;13.80;99.90
34726;DHT22;20951;50.818;4.344;2023-05-31T02:49:45;13.80;99.90
34726;DHT22;20951;50.818;4.344;2023-05-31T02:52:16;13.90;99.90
34726;DHT22;20951;50.818;4.344;2023-05-31T02:54:48;13.80;99.90
34726;DHT22;20951;50.818;4.344;2023-05-31T02:57:19;13.80;99.90
34726;DHT22;20951;50.818;4.344;2023-05-31T02:59:54;13.80;99.90
34726;DHT22;20951;50.818;4.344;2023-05-31T03:02:24;13.80;99.90
34726;DHT22;20951;50.818;4.344;2023-05-31T03:04:57;13.70;99.90
34726;DHT22;20951;50.818;4.344;2023-05-31T03:07:28;13.70;99.90
34726;DHT22;20951;50.818;4.344;2023-05-31T03:09:59;13.70;99.90
34726;DHT22;20951;50.818;4.344;2023-05-31T03:12:31;13.80;99.90
34726;DHT22;20951;50.818;4.344;2023-05-31T03:15:02;13.70;99.90
34726;DHT22;20951;50.818;4.344;2023-05-31T03:17:33;13.60;99.90
34726;DHT22;20951;50.818;4.344;2023-05-31T03:20:08;13.60;99.90
34726;DHT22;20951;50.818;4.344;2023-05-31T03:22:38;13.60;99.90
34726;DHT22;20951;50.818;4.344;2023-05-31T03:25:09;13.70;99.90
34726;DHT22;20951;50.818;4.344;2023-05-31T03:27:40;13.70;99.90
34726;DHT22;20951;50.818;4.344;2023-05-31T03:30:10;13.60;99.90
34726;DHT22;20951;50.818;4.344;2023-05-31T03:32:40;13.60;99.90
34726;DHT22;20951;50.818;4.344;2023-05-31T03:35:10;13.60;99.90
34726;DHT22;20951;50.818;4.344;2023-05-31T03:37:41;13.60;99.90
34726;DHT22;20951;50.818;4.344;2023-05-31T03:40:11;13.60;99.90
34726;DHT22;20951;50.818;4.344;2023-05-31T03:42:42;13.60;99.90
34726;DHT22;20951;50.818;4.344;2023-05-31T03:45:13;13.50;99.90
34726;DHT22;20951;50.818;4.344;2023-05-31T03:47:43;13.50;99.90
34726;DHT22;20951;50.818;4.344;2023-05-31T03:50:13;13.50;99.90
34726;DHT22;20951;50.818;4.344;2023-05-31T03:52:44;13.50;99.90
34726;DHT22;20951;50.818;4.344;2023-05-31T03:55:15;13.50;99.90
34726;DHT22;20951;50.818;4.344;2023-05-31T03:57:46;13.40;99.90
34726;DHT22;20951;50.818;4.344;2023-05-31T04:00:17;13.50;99.90
34726;DHT22;20951;50.818;4.344;2023-05-31T04:02:47;13.30;99.90
34726;DHT22;20951;50.818;4.344;2023-05-31T04:05:18;13.40;99.90
34726;DHT22;20951;50.818;4.344;2023-05-31T04:07:50;13.40;99.90
34726;DHT22;20951;50.818;4.344;2023-05-31T04:10:20;13.40;99.90
34726;DHT22;20951;50.818;4.344;2023-05-31T04:12:51;13.30;99.90
34726;DHT22;20951;50.818;4.344;2023-05-31T04:15:21;13.30;99.90
34726;DHT22;20951;50.818;4.344;2023-05-31T04:17:51;13.20;99.90
34726;DHT22;20951;50.818;4.344;2023-05-31T04:20:21;13.30;99.90
34726;DHT22;20951;50.818;4.344;2023-05-31T04:22:52;13.30;99.90
34726;DHT22;20951;50.818;4.344;2023-05-31T04:25:23;13.30;99.90
34726;DHT22;20951;50.818;4.344;2023-05-31T04:27:53;13.40;99.90
34726;DHT22;20951;50.818;4.344;2023-05-31T04:30:24;13.40;99.90
34726;DHT22;20951;50.818;4.344;2023-05-31T04:32:55;13.40;99.90
34726;DHT22;20951;50.818;4.344;2023-05-31T04:35:26;13.40;99.90
34726;DHT22;20951;50.818;4.344;2023-05-31T04:37:57;13.50;99.90
34726;DHT22;20951;50.818;4.344;2023-05-31T04:40:28;13.40;99.90
34726;DHT22;20951;50.818;4.344;2023-05-31T04:43:00;13.50;99.90
34726;DHT22;20951;50.818;4.344;2023-05-31T04:45:32;13.60;99.90
34726;DHT22;20951;50.818;4.344;2023-05-31T04:48:03;13.60;99.90
34726;DHT22;20951;50.818;4.344;2023-05-31T04:50:33;13.60;99.90
34726;DHT22;20951;50.818;4.344;2023-05-31T04:53:04;13.60;99.90
34726;DHT22;20951;50.818;4.344;2023-05-31T04:55:35;13.60;99.90
34726;DHT22;20951;50.818;4.344;2023-05-31T04:58:06;13.60;99.90
34726;DHT22;20951;50.818;4.344;2023-05-31T05:00:37;13.60;99.90
34726;DHT22;20951;50.818;4.344;2023-05-31T05:03:09;13.60;99.90
34726;DHT22;20951;50.818;4.344;2023-05-31T05:05:39;13.60;99.90
34726;DHT22;20951;50.818;4.344;2023-05-31T05:08:10;13.60;99.90
34726;DHT22;20951;50.818;4.344;2023-05-31T05:10:41;13.70;99.90
34726;DHT22;20951;50.818;4.344;2023-05-31T05:13:12;13.80;99.90
34726;DHT22;20951;50.818;4.344;2023-05-31T05:15:43;13.80;99.90
34726;DHT22;20951;50.818;4.344;2023-05-31T05:18:13;13.80;99.90
34726;DHT22;20951;50.818;4.344;2023-05-31T05:20:44;13.70;99.90
34726;DHT22;20951;50.818;4.344;2023-05-31T05:23:15;13.90;99.90
34726;DHT22;20951;50.818;4.344;2023-05-31T05:25:46;13.90;99.90
34726;DHT22;20951;50.818;4.344;2023-05-31T05:28:17;13.90;99.90
34726;DHT22;20951;50.818;4.344;2023-05-31T05:30:49;13.80;99.90
34726;DHT22;20951;50.818;4.344;2023-05-31T05:33:19;13.80;99.90
34726;DHT22;20951;50.818;4.344;2023-05-31T05:35:49;13.80;99.90
34726;DHT22;20951;50.818;4.344;2023-05-31T05:38:19;13.90;99.90
34726;DHT22;20951;50.818;4.344;2023-05-31T05:40:49;14.00;99.90
34726;DHT22;20951;50.818;4.344;2023-05-31T05:43:17;14.10;99.90
34726;DHT22;20951;50.818;4.344;2023-05-31T05:45:43;14.10;99.90
34726;DHT22;20951;50.818;4.344;2023-05-31T05:48:09;14.20;99.90
34726;DHT22;20951;50.818;4.344;2023-05-31T05:50:35;14.30;99.90
34726;DHT22;20951;50.818;4.344;2023-05-31T05:53:01;14.30;99.90
34726;DHT22;20951;50.818;4.344;2023-05-31T05:55:27;14.40;99.90
34726;DHT22;20951;50.818;4.344;2023-05-31T05:57:53;14.50;99.90
34726;DHT22;20951;50.818;4.344;2023-05-31T06:00:19;14.70;99.90
34726;DHT22;20951;50.818;4.344;2023-05-31T06:02:47;14.70;99.90
34726;DHT22;20951;50.818;4.344;2023-05-31T06:05:13;14.80;99.90
34726;DHT22;20951;50.818;4.344;2023-05-31T06:07:38;14.80;99.90
34726;DHT22;20951;50.818;4.344;2023-05-31T06:10:05;14.90;99.90
34726;DHT22;20951;50.818;4.344;2023-05-31T06:12:31;14.90;99.90
34726;DHT22;20951;50.818;4.344;2023-05-31T06:14:57;15.00;99.90
34726;DHT22;20951;50.818;4.344;2023-05-31T06:17:23;15.10;99.90
34726;DHT22;20951;50.818;4.344;2023-05-31T06:19:49;15.30;99.90
34726;DHT22;20951;50.818;4.344;2023-05-31T06:22:15;15.80;99.90
34726;DHT22;20951;50.818;4.344;2023-05-31T06:24:42;16.70;99.90
34726;DHT22;20951;50.818;4.344;2023-05-31T06:27:08;18.70;99.90
34726;DHT22;20951;50.818;4.344;2023-05-31T06:29:35;20.70;99.90
34726;DHT22;20951;50.818;4.344;2023-05-31T06:32:01;22.40;99.90
34726;DHT22;20951;50.818;4.344;2023-05-31T06:34:28;23.60;99.90
34726;DHT22;20951;50.818;4.344;2023-05-31T06:36:54;24.60;99.90
34726;DHT22;20951;50.818;4.344;2023-05-31T06:39:21;25.60;99.90
34726;DHT22;20951;50.818;4.344;2023-05-31T06:41:47;25.80;99.90
34726;DHT22;20951;50.818;4.344;2023-05-31T06:44:13;25.40;99.90
34726;DHT22;20951;50.818;4.344;2023-05-31T06:46:39;25.30;99.90
34726;DHT22;20951;50.818;4.344;2023-05-31T06:49:05;25.40;99.90
34726;DHT22;20951;50.818;4.344;2023-05-31T06:51:31;25.80;99.90
34726;DHT22;20951;50.818;4.344;2023-05-31T06:53:58;25.80;99.70
34726;DHT22;20951;50.818;4.344;2023-05-31T06:56:25;26.40;99.00
34726;DHT22;20951;50.818;4.344;2023-05-31T06:58:53;27.00;97.20
34726;DHT22;20951;50.818;4.344;2023-05-31T07:01:18;26.50;97.30
34726;DHT22;20951;50.818;4.344;2023-05-31T07:03:44;26.40;97.50
34726;DHT22;20951;50.818;4.344;2023-05-31T07:06:13;26.80;96.90
34726;DHT22;20951;50.818;4.344;2023-05-31T07:08:39;27.20;96.70
34726;DHT22;20951;50.818;4.344;2023-05-31T07:11:06;27.60;96.00
34726;DHT22;20951;50.818;4.344;2023-05-31T07:13:34;27.80;94.80
34726;DHT22;20951;50.818;4.344;2023-05-31T07:16:01;28.10;94.80
34726;DHT22;20951;50.818;4.344;2023-05-31T07:18:28;28.20;94.30
34726;DHT22;20951;50.818;4.344;2023-05-31T07:20:54;28.70;93.40
34726;DHT22;20951;50.818;4.344;2023-05-31T07:23:22;28.60;92.80
34726;DHT22;20951;50.818;4.344;2023-05-31T07:25:55;28.20;93.10
34726;DHT22;20951;50.818;4.344;2023-05-31T07:28:22;28.50;93.20
34726;DHT22;20951;50.818;4.344;2023-05-31T07:30:48;29.10;92.20
34726;DHT22;20951;50.818;4.344;2023-05-31T07:33:35;29.10;92.00
34726;DHT22;20951;50.818;4.344;2023-05-31T07:36:12;29.60;91.40
34726;DHT22;20951;50.818;4.344;2023-05-31T07:38:38;30.00;90.80
34726;DHT22;20951;50.818;4.344;2023-05-31T07:41:04;30.10;90.40
34726;DHT22;20951;50.818;4.344;2023-05-31T07:43:30;30.30;89.90
34726;DHT22;20951;50.818;4.344;2023-05-31T07:45:56;31.30;88.50
34726;DHT22;20951;50.818;4.344;2023-05-31T07:48:23;31.30;87.10
34726;DHT22;20951;50.818;4.344;2023-05-31T07:50:51;31.80;86.10
34726;DHT22;20951;50.818;4.344;2023-05-31T07:53:17;31.90;84.70
34726;DHT22;20951;50.818;4.344;2023-05-31T07:56:07;32.20;83.30
34726;DHT22;20951;50.818;4.344;2023-05-31T07:59:05;32.10;82.50
34726;DHT22;20951;50.818;4.344;2023-05-31T08:01:35;31.60;83.20
34726;DHT22;20951;50.818;4.344;2023-05-31T08:04:15;30.70;83.60
34726;DHT22;20951;50.818;4.344;2023-05-31T08:06:41;31.60;83.90
34726;DHT22;20951;50.818;4.344;2023-05-31T08:09:08;31.90;82.50
34726;DHT22;20951;50.818;4.344;2023-05-31T08:11:34;32.30;81.80
34726;DHT22;20951;50.818;4.344;2023-05-31T08:14:04;32.50;80.60
34726;DHT22;20951;50.818;4.344;2023-05-31T08:16:33;32.50;80.10
34726;DHT22;20951;50.818;4.344;2023-05-31T08:19:01;33.00;79.80
34726;DHT22;20951;50.818;4.344;2023-05-31T08:21:27;33.20;78.30
34726;DHT22;20951;50.818;4.344;2023-05-31T08:23:55;32.40;78.10
34726;DHT22;20951;50.818;4.344;2023-05-31T08:26:21;31.80;79.40
34726;DHT22;20951;50.818;4.344;2023-05-31T08:28:49;31.80;79.40
34726;DHT22;20951;50.818;4.344;2023-05-31T08:31:16;31.70;80.10
34726;DHT22;20951;50.818;4.344;2023-05-31T08:33:57;31.80;79.70
34726;DHT22;20951;50.818;4.344;2023-05-31T08:36:26;32.20;79.80
34726;DHT22;20951;50.818;4.344;2023-05-31T08:38:55;32.50;78.70
34726;DHT22;20951;50.818;4.344;2023-05-31T08:41:23;32.80;79.00
34726;DHT22;20951;50.818;4.344;2023-05-31T08:43:52;33.50;77.10
34726;DHT22;20951;50.818;4.344;2023-05-31T08:46:20;33.10;76.00
34726;DHT22;20951;50.818;4.344;2023-05-31T08:48:59;32.80;76.30
34726;DHT22;20951;50.818;4.344;2023-05-31T08:51:27;32.30;77.30
34726;DHT22;20951;50.818;4.344;2023-05-31T08:53:57;32.50;78.50
34726;DHT22;20951;50.818;4.344;2023-05-31T08:56:27;33.10;77.30
34726;DHT22;20951;50.818;4.344;2023-05-31T08:58:55;33.90;76.00
34726;DHT22;20951;50.818;4.344;2023-05-31T09:01:22;34.10;74.00
34726;DHT22;20951;50.818;4.344;2023-05-31T09:03:50;33.90;74.60
34726;DHT22;20951;50.818;4.344;2023-05-31T09:06:18;34.30;74.60
34726;DHT22;20951;50.818;4.344;2023-05-31T09:08:45;35.80;73.20
34726;DHT22;20951;50.818;4.344;2023-05-31T09:11:13;35.50;70.80
34726;DHT22;20951;50.818;4.344;2023-05-31T09:13:40;34.90;70.80
34726;DHT22;20951;50.818;4.344;2023-05-31T09:16:06;35.00;70.90
34726;DHT22;20951;50.818;4.344;2023-05-31T09:18:39;34.60;70.70
34726;DHT22;20951;50.818;4.344;2023-05-31T09:21:10;34.40;71.70
34726;DHT22;20951;50.818;4.344;2023-05-31T09:23:37;34.60;70.80
34726;DHT22;20951;50.818;4.344;2023-05-31T09:26:06;35.00;69.80
34726;DHT22;20951;50.818;4.344;2023-05-31T09:28:33;34.90;70.00
34726;DHT22;20951;50.818;4.344;2023-05-31T09:31:06;33.40;70.00
34726;DHT22;20951;50.818;4.344;2023-05-31T09:33:44;33.20;71.60
34726;DHT22;20951;50.818;4.344;2023-05-31T09:36:12;33.40;71.70
34726;DHT22;20951;50.818;4.344;2023-05-31T09:38:41;34.10;71.20
34726;DHT22;20951;50.818;4.344;2023-05-31T09:41:14;34.30;71.50
34726;DHT22;20951;50.818;4.344;2023-05-31T09:43:45;34.30;70.30
34726;DHT22;20951;50.818;4.344;2023-05-31T09:46:16;35.20;70.00
34726;DHT22;20951;50.818;4.344;2023-05-31T09:48:44;34.90;68.80
34726;DHT22;20951;50.818;4.344;2023-05-31T09:51:12;34.80;68.90
34726;DHT22;20951;50.818;4.344;2023-05-31T09:53:43;35.00;68.70
34726;DHT22;20951;50.818;4.344;2023-05-31T09:56:20;34.60;68.60
34726;DHT22;20951;50.818;4.344;2023-05-31T09:58:56;34.60;69.90
34726;DHT22;20951;50.818;4.344;2023-05-31T10:01:23;34.80;68.30
34726;DHT22;20951;50.818;4.344;2023-05-31T10:03:49;34.60;69.10
34726;DHT22;20951;50.818;4.344;2023-05-31T10:06:17;34.90;68.30
34726;DHT22;20951;50.818;4.344;2023-05-31T10:08:44;35.10;67.80
34726;DHT22;20951;50.818;4.344;2023-05-31T10:11:16;35.30;67.00
34726;DHT22;20951;50.818;4.344;2023-05-31T10:13:42;35.00;66.90
34726;DHT22;20951;50.818;4.344;2023-05-31T10:16:11;35.20;66.40
34726;DHT22;20951;50.818;4.344;2023-05-31T10:18:38;35.30;66.70
34726;DHT22;20951;50.818;4.344;2023-05-31T10:23:37;36.50;65.90
34726;DHT22;20951;50.818;4.344;2023-05-31T10:26:14;36.50;65.50
34726;DHT22;20951;50.818;4.344;2023-05-31T10:31:31;34.50;64.50
34726;DHT22;20951;50.818;4.344;2023-05-31T10:34:15;34.70;64.40
34726;DHT22;20951;50.818;4.344;2023-05-31T10:36:41;35.50;63.90
34726;DHT22;20951;50.818;4.344;2023-05-31T10:42:08;36.10;63.80
34726;DHT22;20951;50.818;4.344;2023-05-31T10:45:19;35.20;62.90
34726;DHT22;20951;50.818;4.344;2023-05-31T10:50:20;34.40;63.90
34726;DHT22;20951;50.818;4.344;2023-05-31T10:52:52;33.90;62.50
34726;DHT22;20951;50.818;4.344;2023-05-31T10:55:21;34.30;61.40
34726;DHT22;20951;50.818;4.344;2023-05-31T10:57:52;33.80;62.90
34726;DHT22;20951;50.818;4.344;2023-05-31T11:00:19;33.60;62.50
34726;DHT22;20951;50.818;4.344;2023-05-31T11:02:48;33.10;63.40
34726;DHT22;20951;50.818;4.344;2023-05-31T11:05:25;32.80;63.90
34726;DHT22;20951;50.818;4.344;2023-05-31T11:07:53;33.90;63.70
34726;DHT22;20951;50.818;4.344;2023-05-31T11:10:30;34.10;62.00
34726;DHT22;20951;50.818;4.344;2023-05-31T11:13:02;34.20;61.40
34726;DHT22;20951;50.818;4.344;2023-05-31T11:15:39;34.30;61.30
34726;DHT22;20951;50.818;4.344;2023-05-31T11:18:10;33.90;60.90
34726;DHT22;20951;50.818;4.344;2023-05-31T11:20:41;33.50;60.90
34726;DHT22;20951;50.818;4.344;2023-05-31T11:23:23;33.70;61.50
34726;DHT22;20951;50.818;4.344;2023-05-31T11:26:14;33.50;62.10
34726;DHT22;20951;50.818;4.344;2023-05-31T11:28:59;33.30;62.00
34726;DHT22;20951;50.818;4.344;2023-05-31T11:32:06;33.40;62.60
34726;DHT22;20951;50.818;4.344;2023-05-31T11:34:33;33.60;62.70
34726;DHT22;20951;50.818;4.344;2023-05-31T11:37:01;34.20;62.60
34726;DHT22;20951;50.818;4.344;2023-05-31T11:39:27;34.60;60.80
34726;DHT22;20951;50.818;4.344;2023-05-31T11:41:53;35.20;59.90
34726;DHT22;20951;50.818;4.344;2023-05-31T11:44:25;35.60;59.00
34726;DHT22;20951;50.818;4.344;2023-05-31T11:46:56;35.30;58.90
34726;DHT22;20951;50.818;4.344;2023-05-31T11:49:24;35.10;58.70
34726;DHT22;20951;50.818;4.344;2023-05-31T11:51:54;34.50;59.50
34726;DHT22;20951;50.818;4.344;2023-05-31T11:54:27;34.90;60.60
34726;DHT22;20951;50.818;4.344;2023-05-31T11:57:05;35.50;59.60
34726;DHT22;20951;50.818;4.344;2023-05-31T11:59:33;35.60;59.20
34726;DHT22;20951;50.818;4.344;2023-05-31T12:02:00;35.90;59.10
34726;DHT22;20951;50.818;4.344;2023-05-31T12:04:36;35.70;58.60
34726;DHT22;20951;50.818;4.344;2023-05-31T12:07:08;35.90;58.70
34726;DHT22;20951;50.818;4.344;2023-05-31T12:09:35;36.10;58.60
34726;DHT22;20951;50.818;4.344;2023-05-31T12:12:01;36.10;58.30
34726;DHT22;20951;50.818;4.344;2023-05-31T12:14:31;35.80;58.10
34726;DHT22;20951;50.818;4.344;2023-05-31T12:17:06;35.70;58.40
34726;DHT22;20951;50.818;4.344;2023-05-31T12:19:32;36.50;58.70
34726;DHT22;20951;50.818;4.344;2023-05-31T12:21:58;36.80;57.80
34726;DHT22;20951;50.818;4.344;2023-05-31T12:24:27;37.10;57.10
34726;DHT22;20951;50.818;4.344;2023-05-31T12:26:54;36.40;57.40
34726;DHT22;20951;50.818;4.344;2023-05-31T12:29:27;36.40;57.00
34726;DHT22;20951;50.818;4.344;2023-05-31T12:32:04;36.60;56.90
34726;DHT22;20951;50.818;4.344;2023-05-31T12:34:33;37.30;57.20
34726;DHT22;20951;50.818;4.344;2023-05-31T12:37:04;37.60;56.10
34726;DHT22;20951;50.818;4.344;2023-05-31T12:39:30;37.30;56.20
34726;DHT22;20951;50.818;4.344;2023-05-31T12:41:57;37.00;56.60
34726;DHT22;20951;50.818;4.344;2023-05-31T12:44:25;37.70;56.30
34726;DHT22;20951;50.818;4.344;2023-05-31T12:46:51;38.50;55.80
34726;DHT22;20951;50.818;4.344;2023-05-31T12:49:25;37.60;55.70
34726;DHT22;20951;50.818;4.344;2023-05-31T12:52:04;36.30;56.50
34726;DHT22;20951;50.818;4.344;2023-05-31T12:54:31;36.30;56.90
34726;DHT22;20951;50.818;4.344;2023-05-31T12:57:00;36.00;56.60
34726;DHT22;20951;50.818;4.344;2023-05-31T12:59:29;35.20;56.70
34726;DHT22;20951;50.818;4.344;2023-05-31T13:01:56;35.50;56.90
34726;DHT22;20951;50.818;4.344;2023-05-31T13:04:21;36.00;57.00
34726;DHT22;20951;50.818;4.344;2023-05-31T13:06:48;37.00;56.10
34726;DHT22;20951;50.818;4.344;2023-05-31T13:09:15;36.70;55.60
34726;DHT22;20951;50.818;4.344;2023-05-31T13:11:42;36.80;56.10
34726;DHT22;20951;50.818;4.344;2023-05-31T13:14:09;36.70;56.10
34726;DHT22;20951;50.818;4.344;2023-05-31T13:16:37;36.70;56.10
34726;DHT22;20951;50.818;4.344;2023-05-31T13:19:05;36.90;55.50
34726;DHT22;20951;50.818;4.344;2023-05-31T13:21:32;36.70;55.80
34726;DHT22;20951;50.818;4.344;2023-05-31T13:23:58;37.70;55.90
34726;DHT22;20951;50.818;4.344;2023-05-31T13:26:25;38.40;55.10
34726;DHT22;20951;50.818;4.344;2023-05-31T13:28:53;38.70;54.70
34726;DHT22;20951;50.818;4.344;2023-05-31T13:31:20;38.50;54.40
34726;DHT22;20951;50.818;4.344;2023-05-31T13:33:46;38.20;54.70
34726;DHT22;20951;50.818;4.344;2023-05-31T13:36:16;37.80;55.30
34726;DHT22;20951;50.818;4.344;2023-05-31T13:38:42;37.70;55.80
34726;DHT22;20951;50.818;4.344;2023-05-31T13:41:08;36.50;56.00
34726;DHT22;20951;50.818;4.344;2023-05-31T13:43:34;36.30;56.40
34726;DHT22;20951;50.818;4.344;2023-05-31T13:46:05;36.40;56.60
34726;DHT22;20951;50.818;4.344;2023-05-31T13:48:37;35.80;56.70
34726;DHT22;20951;50.818;4.344;2023-05-31T13:51:04;35.30;57.30
34726;DHT22;20951;50.818;4.344;2023-05-31T13:53:30;34.70;57.30
34726;DHT22;20951;50.818;4.344;2023-05-31T13:55:57;35.10;57.90
34726;DHT22;20951;50.818;4.344;2023-05-31T13:58:23;35.40;57.30
34726;DHT22;20951;50.818;4.344;2023-05-31T14:00:49;35.50;57.30
34726;DHT22;20951;50.818;4.344;2023-05-31T14:03:18;35.00;57.50
34726;DHT22;20951;50.818;4.344;2023-05-31T14:05:44;34.70;58.00
34726;DHT22;20951;50.818;4.344;2023-05-31T14:08:15;34.50;58.40
34726;DHT22;20951;50.818;4.344;2023-05-31T14:10:41;34.60;58.50
34726;DHT22;20951;50.818;4.344;2023-05-31T14:13:07;34.70;58.10
34726;DHT22;20951;50.818;4.344;2023-05-31T14:15:32;34.40;58.70
34726;DHT22;20951;50.818;4.344;2023-05-31T14:17:58;34.20;58.70
34726;DHT22;20951;50.818;4.344;2023-05-31T14:20:24;34.20;59.00
34726;DHT22;20951;50.818;4.344;2023-05-31T14:22:50;33.50;59.30
34726;DHT22;20951;50.818;4.344;2023-05-31T14:25:18;32.60;60.40
34726;DHT22;20951;50.818;4.344;2023-05-31T14:27:51;32.40;61.10
34726;DHT22;20951;50.818;4.344;2023-05-31T14:30:24;31.80;62.10
34726;DHT22;20951;50.818;4.344;2023-05-31T14:32:56;31.20;62.80
34726;DHT22;20951;50.818;4.344;2023-05-31T14:35:27;30.90;63.40
34726;DHT22;20951;50.818;4.344;2023-05-31T14:38:01;30.70;64.00
34726;DHT22;20951;50.818;4.344;2023-05-31T14:40:34;30.40;64.60
34726;DHT22;20951;50.818;4.344;2023-05-31T14:43:09;30.00;65.50
34726;DHT22;20951;50.818;4.344;2023-05-31T14:45:39;29.60;65.60
34726;DHT22;20951;50.818;4.344;2023-05-31T14:48:11;29.40;66.30
34726;DHT22;20951;50.818;4.344;2023-05-31T14:50:42;29.10;66.10
34726;DHT22;20951;50.818;4.344;2023-05-31T14:53:14;29.10;67.50
34726;DHT22;20951;50.818;4.344;2023-05-31T14:55:45;28.90;66.20
34726;DHT22;20951;50.818;4.344;2023-05-31T14:58:20;28.80;66.90
34726;DHT22;20951;50.818;4.344;2023-05-31T15:00:51;28.70;67.20
34726;DHT22;20951;50.818;4.344;2023-05-31T15:03:21;28.50;67.70
34726;DHT22;20951;50.818;4.344;2023-05-31T15:05:51;28.50;68.30
34726;DHT22;20951;50.818;4.344;2023-05-31T15:08:25;28.40;68.60
34726;DHT22;20951;50.818;4.344;2023-05-31T15:11:02;28.40;68.90
34726;DHT22;20951;50.818;4.344;2023-05-31T15:13:34;28.20;68.80
34726;DHT22;20951;50.818;4.344;2023-05-31T15:16:05;28.10;68.70
34726;DHT22;20951;50.818;4.344;2023-05-31T15:18:36;28.10;68.10
34726;DHT22;20951;50.818;4.344;2023-05-31T15:21:07;28.10;68.40
34726;DHT22;20951;50.818;4.344;2023-05-31T15:23:39;28.00;68.80
34726;DHT22;20951;50.818;4.344;2023-05-31T15:26:11;28.10;69.40
34726;DHT22;20951;50.818;4.344;2023-05-31T15:28:42;27.90;69.90
34726;DHT22;20951;50.818;4.344;2023-05-31T15:31:14;27.90;70.50
34726;DHT22;20951;50.818;4.344;2023-05-31T15:33:46;28.00;70.20
34726;DHT22;20951;50.818;4.344;2023-05-31T15:36:18;27.80;70.80
34726;DHT22;20951;50.818;4.344;2023-05-31T15:38:49;27.80;70.90
34726;DHT22;20951;50.818;4.344;2023-05-31T15:41:22;27.70;71.10
34726;DHT22;20951;50.818;4.344;2023-05-31T15:43:53;27.60;71.60
34726;DHT22;20951;50.818;4.344;2023-05-31T15:46:25;27.60;70.70
34726;DHT22;20951;50.818;4.344;2023-05-31T15:48:57;27.30;71.00
34726;DHT22;20951;50.818;4.344;2023-05-31T15:51:28;27.20;71.50
34726;DHT22;20951;50.818;4.344;2023-05-31T15:54:00;27.20;71.70
34726;DHT22;20951;50.818;4.344;2023-05-31T15:56:30;27.20;72.40
34726;DHT22;20951;50.818;4.344;2023-05-31T15:59:01;27.20;72.00
34726;DHT22;20951;50.818;4.344;2023-05-31T16:01:32;27.10;72.90
34726;DHT22;20951;50.818;4.344;2023-05-31T16:04:08;27.20;73.20
34726;DHT22;20951;50.818;4.344;2023-05-31T16:06:37;27.30;73.30
34726;DHT22;20951;50.818;4.344;2023-05-31T16:09:03;27.20;73.50